createdAt,value
2023-06-17T00:00:42.884Z,5.22
2023-06-17T00:03:09.996Z,5.70
2023-06-17T00:05:37.316Z,5.20
2023-06-17T00:08:04.023Z,5.25
2023-06-17T00:10:30.783Z,5.05
2023-06-17T00:12:59.524Z,4.53
2023-06-17T00:15:26.399Z,5.50
2023-06-17T00:17:53.317Z,5.70
2023-06-17T00:20:20.276Z,5.65
2023-06-17T00:22:48.162Z,5.30
2023-06-17T00:25:14.812Z,5.78
2023-06-17T00:27:42.516Z,5.85
2023-06-17T00:30:09.655Z,5.57
2023-06-17T00:32:36.693Z,5.82
2023-06-17T00:35:05.149Z,5.72
2023-06-17T00:37:31.989Z,5.97
2023-06-17T00:39:59.034Z,5.88
2023-06-17T00:42:25.718Z,5.80
2023-06-17T00:44:52.494Z,5.43
2023-06-17T00:47:19.181Z,5.95
2023-06-17T00:49:48.324Z,5.72
2023-06-17T00:52:35.722Z,6.23
2023-06-17T00:55:02.586Z,5.65
2023-06-17T00:57:30.427Z,5.55
2023-06-17T00:59:57.084Z,5.35
2023-06-17T01:02:27.095Z,4.65
2023-06-17T01:04:55.308Z,4.80
2023-06-17T01:07:47.373Z,5.40
2023-06-17T01:10:22.218Z,5.35
2023-06-17T01:12:49.853Z,5.05
2023-06-17T01:15:18.368Z,4.93
2023-06-17T01:17:47.544Z,5.47
2023-06-17T01:20:14.937Z,4.65
2023-06-17T01:22:42.329Z,4.65
2023-06-17T01:25:10.675Z,4.75
2023-06-17T01:27:37.273Z,4.65
2023-06-17T01:30:04.172Z,5.13
2023-06-17T01:32:31.201Z,4.93
2023-06-17T01:35:03.465Z,5.72
2023-06-17T01:37:36.456Z,5.20
2023-06-17T01:40:06.045Z,6.10
2023-06-17T01:42:36.790Z,5.15
2023-06-17T01:45:07.068Z,6.00
2023-06-17T01:47:34.617Z,5.30
2023-06-17T01:50:03.447Z,5.78
2023-06-17T01:52:30.188Z,4.97
2023-06-17T01:54:57.687Z,5.40
2023-06-17T01:57:24.593Z,5.47
2023-06-17T01:59:52.497Z,5.65
2023-06-17T02:02:19.199Z,6.68
2023-06-17T02:04:48.388Z,5.50
2023-06-17T02:07:17.741Z,5.00
2023-06-17T02:09:46.116Z,5.57
2023-06-17T02:12:12.906Z,5.63
2023-06-17T02:14:39.745Z,5.57
2023-06-17T02:17:06.392Z,5.63
2023-06-17T02:19:33.206Z,6.30
2023-06-17T02:22:00.965Z,5.63
2023-06-17T02:24:27.647Z,5.57
2023-06-17T02:26:54.990Z,5.22
2023-06-17T02:29:21.559Z,4.95
2023-06-17T02:31:48.177Z,5.63
2023-06-17T02:34:14.780Z,5.38
2023-06-17T02:36:41.379Z,5.55
2023-06-17T02:39:08.463Z,5.57
2023-06-17T02:41:34.996Z,6.43
2023-06-17T02:44:01.919Z,6.10
2023-06-17T02:46:28.835Z,5.38
2023-06-17T02:48:56.387Z,5.28
2023-06-17T02:51:23.316Z,5.35
2023-06-17T02:53:49.902Z,5.28
2023-06-17T02:56:16.920Z,6.57
2023-06-17T02:58:46.880Z,5.75
2023-06-17T03:01:13.987Z,6.03
2023-06-17T03:03:43.039Z,5.82
2023-06-17T03:06:10.434Z,5.43
2023-06-17T03:08:39.302Z,5.47
2023-06-17T03:11:05.996Z,5.03
2023-06-17T03:13:32.620Z,5.50
2023-06-17T03:16:02.329Z,6.38
2023-06-17T03:18:29.437Z,6.15
2023-06-17T03:20:56.244Z,7.45
2023-06-17T03:23:23.267Z,6.50
2023-06-17T03:25:51.281Z,7.20
2023-06-17T03:28:19.007Z,5.93
2023-06-17T03:30:46.238Z,4.95
2023-06-17T03:33:14.444Z,5.57
2023-06-17T03:35:42.792Z,5.80
2023-06-17T03:38:10.625Z,5.85
2023-06-17T03:40:37.830Z,6.05
2023-06-17T03:43:04.953Z,5.88
2023-06-17T03:45:39.263Z,5.55
2023-06-17T03:48:06.253Z,5.50
2023-06-17T03:50:32.854Z,5.40
2023-06-17T03:52:59.833Z,5.03
2023-06-17T03:55:26.606Z,6.15
2023-06-17T03:57:53.893Z,4.95
2023-06-17T04:00:21.063Z,4.97
2023-06-17T04:02:48.770Z,4.75
2023-06-17T04:05:16.564Z,5.05
2023-06-17T04:07:43.683Z,5.35
2023-06-17T04:10:11.022Z,4.97
2023-06-17T04:12:38.886Z,5.30
2023-06-17T04:15:08.710Z,6.30
2023-06-17T04:17:38.686Z,5.55
2023-06-17T04:20:12.305Z,4.35
2023-06-17T04:22:40.614Z,5.18
2023-06-17T04:25:08.987Z,4.50
2023-06-17T04:27:37.672Z,4.88
2023-06-17T04:30:05.344Z,5.47
2023-06-17T04:32:36.185Z,5.53
2023-06-17T04:35:06.134Z,5.75
2023-06-17T04:37:35.653Z,5.25
2023-06-17T04:40:07.791Z,5.25
2023-06-17T04:42:37.742Z,6.03
2023-06-17T04:45:04.778Z,5.45
2023-06-17T04:47:31.502Z,5.97
2023-06-17T04:49:59.002Z,5.22
2023-06-17T04:52:25.919Z,5.63
2023-06-17T04:54:52.772Z,5.20
2023-06-17T04:57:20.189Z,5.75
2023-06-17T04:59:46.749Z,6.10
2023-06-17T05:02:14.591Z,5.05
2023-06-17T05:04:41.998Z,5.07
2023-06-17T05:07:08.887Z,5.68
2023-06-17T05:09:35.453Z,4.93
2023-06-17T05:12:02.161Z,4.82
2023-06-17T05:14:28.820Z,5.18
2023-06-17T05:16:55.669Z,5.68
2023-06-17T05:19:22.710Z,5.53
2023-06-17T05:21:49.346Z,4.88
2023-06-17T05:24:16.177Z,4.95
2023-06-17T05:26:42.865Z,4.85
2023-06-17T05:29:09.511Z,5.57
2023-06-17T05:31:36.043Z,5.05
2023-06-17T05:37:36.238Z,4.47
2023-06-17T05:40:03.372Z,5.00
2023-06-17T05:42:30.940Z,5.85
2023-06-17T05:45:22.846Z,5.07
2023-06-17T05:48:03.996Z,5.72
2023-06-17T05:50:44.049Z,4.97
2023-06-17T05:53:39.055Z,4.97
2023-06-17T05:56:18.897Z,5.03
2023-06-17T05:58:45.772Z,4.28
2023-06-17T06:09:43.623Z,4.38
2023-06-17T06:12:11.294Z,4.28
2023-06-17T06:17:29.345Z,4.55
2023-06-17T06:20:47.987Z,4.25
2023-06-17T06:23:31.230Z,3.80
2023-06-17T06:25:57.886Z,3.88
2023-06-17T06:31:14.124Z,4.35
2023-06-17T06:33:40.642Z,3.90
2023-06-17T06:36:17.281Z,3.60
2023-06-17T06:38:43.815Z,3.63
2023-06-17T06:41:38.345Z,4.15
2023-06-17T06:44:04.949Z,4.85
2023-06-17T06:50:27.559Z,4.03
2023-06-17T06:59:41.992Z,3.80
2023-06-17T07:06:04.623Z,3.53
2023-06-17T07:09:01.932Z,3.90
2023-06-17T07:11:31.714Z,3.60
2023-06-17T07:16:27.909Z,4.07
2023-06-17T07:18:54.719Z,3.83
2023-06-17T07:21:21.251Z,3.65
2023-06-17T07:23:47.938Z,3.97
2023-06-17T07:26:14.540Z,3.63
2023-06-17T07:28:41.139Z,3.60
2023-06-17T07:31:07.813Z,3.83
2023-06-17T07:33:34.578Z,3.13
2023-06-17T07:36:01.205Z,4.10
2023-06-17T07:38:27.802Z,3.70
2023-06-17T07:40:54.385Z,3.65
2023-06-17T07:43:20.942Z,3.22
2023-06-17T07:45:47.550Z,3.70
2023-06-17T07:48:14.213Z,2.88
2023-06-17T07:50:41.332Z,3.83
2023-06-17T07:53:07.874Z,3.00
2023-06-17T07:55:37.069Z,3.00
2023-06-17T07:58:03.845Z,2.97
2023-06-17T08:00:30.684Z,2.85
2023-06-17T08:02:57.374Z,2.80
2023-06-17T08:05:24.034Z,2.75
2023-06-17T08:07:50.871Z,3.25
2023-06-17T08:10:17.519Z,2.88
2023-06-17T08:12:48.152Z,2.55
2023-06-17T08:15:14.918Z,2.67
2023-06-17T08:17:41.895Z,2.88
2023-06-17T08:20:11.231Z,2.83
2023-06-17T08:22:37.984Z,2.70
2023-06-17T08:25:04.748Z,2.25
2023-06-17T08:27:32.315Z,2.65
2023-06-17T08:29:59.910Z,2.28
2023-06-17T08:32:26.748Z,2.33
2023-06-17T08:34:53.365Z,2.20
2023-06-17T08:37:19.924Z,2.28
2023-06-17T08:39:46.481Z,2.17
2023-06-17T08:42:13.085Z,2.10
2023-06-17T08:44:43.436Z,2.10
2023-06-17T08:47:14.758Z,2.63
2023-06-17T08:49:44.215Z,2.65
2023-06-17T08:52:12.602Z,2.47
2023-06-17T08:54:41.609Z,2.35
2023-06-17T08:57:14.915Z,2.28
2023-06-17T08:59:42.045Z,2.33
2023-06-17T09:02:08.996Z,2.83
2023-06-17T09:04:36.529Z,2.20
2023-06-17T09:07:03.676Z,3.20
2023-06-17T09:09:37.396Z,3.45
2023-06-17T09:12:06.568Z,2.83
2023-06-17T09:14:34.164Z,2.13
2023-06-17T09:17:02.171Z,2.67
2023-06-17T09:19:32.592Z,2.17
2023-06-17T09:22:07.725Z,2.45
2023-06-17T09:24:36.440Z,2.03
2023-06-17T09:27:03.564Z,3.22
2023-06-17T09:29:34.830Z,3.08
2023-06-17T09:32:04.463Z,3.30
2023-06-17T09:34:31.062Z,2.47
2023-06-17T09:37:02.296Z,2.22
2023-06-17T09:39:34.329Z,2.00
2023-06-17T09:42:09.653Z,2.10
2023-06-17T09:44:38.751Z,2.13
2023-06-17T09:47:07.723Z,2.30
2023-06-17T09:49:35.279Z,2.17
2023-06-17T09:52:03.918Z,2.30
2023-06-17T09:54:32.079Z,2.30
2023-06-17T09:57:00.210Z,1.95
2023-06-17T09:59:27.762Z,2.63
2023-06-17T10:01:55.906Z,2.30
2023-06-17T10:04:22.515Z,2.75
2023-06-17T10:06:51.451Z,2.33
2023-06-17T10:11:48.559Z,2.85
2023-06-17T10:14:22.306Z,3.20
2023-06-17T10:16:50.529Z,3.20
2023-06-17T10:19:26.679Z,2.70
2023-06-17T10:21:55.877Z,2.08
2023-06-17T10:24:24.482Z,2.80
2023-06-17T10:26:52.364Z,2.78
2023-06-17T10:29:19.451Z,2.63
2023-06-17T10:31:46.260Z,2.75
2023-06-17T10:34:22.841Z,2.67
2023-06-17T10:36:59.614Z,2.63
2023-06-17T10:39:26.194Z,3.15
2023-06-17T10:42:03.390Z,2.72
2023-06-17T10:44:37.027Z,2.77
2023-06-17T10:47:15.409Z,2.42
2023-06-17T10:49:43.588Z,2.87
2023-06-17T10:52:14.953Z,3.03
2023-06-17T10:54:53.594Z,2.20
2023-06-17T10:57:34.244Z,2.30
2023-06-17T11:00:11.461Z,2.35
2023-06-17T11:02:41.840Z,2.40
2023-06-17T11:05:09.748Z,2.25
2023-06-17T11:07:37.129Z,2.75
2023-06-17T11:10:04.147Z,2.45
2023-06-17T11:12:32.022Z,2.80
2023-06-17T11:15:01.465Z,2.88
2023-06-17T11:17:28.467Z,3.05
2023-06-17T11:19:55.146Z,2.28
2023-06-17T11:22:23.257Z,2.30
2023-06-17T11:24:51.050Z,2.70
2023-06-17T11:27:18.485Z,2.10
2023-06-17T11:29:45.190Z,1.88
2023-06-17T11:32:11.935Z,2.50
2023-06-17T11:34:38.711Z,1.95
2023-06-17T11:37:10.734Z,2.20
2023-06-17T11:39:39.375Z,2.63
2023-06-17T11:42:07.753Z,2.40
2023-06-17T11:44:36.302Z,2.40
2023-06-17T11:47:10.677Z,1.95
2023-06-17T11:49:41.864Z,1.95
2023-06-17T11:52:13.077Z,2.20
2023-06-17T11:54:50.153Z,2.30
2023-06-17T11:57:22.395Z,2.63
2023-06-17T11:59:49.947Z,2.58
2023-06-17T12:02:17.026Z,2.53
2023-06-17T12:04:45.066Z,2.40
2023-06-17T12:07:11.954Z,2.78
2023-06-17T12:09:49.286Z,3.28
2023-06-17T12:12:29.478Z,2.35
2023-06-17T12:15:14.789Z,2.70
2023-06-17T12:17:46.057Z,2.25
2023-06-17T12:20:14.086Z,2.75
2023-06-17T12:22:41.009Z,2.38
2023-06-17T12:25:08.005Z,2.20
2023-06-17T12:27:34.658Z,2.47
2023-06-17T12:30:02.128Z,3.28
2023-06-17T12:32:29.767Z,2.60
2023-06-17T12:34:56.365Z,3.17
2023-06-17T12:37:28.921Z,3.10
2023-06-17T12:40:04.448Z,2.45
2023-06-17T12:42:31.301Z,2.42
2023-06-17T12:44:58.994Z,2.50
2023-06-17T12:47:26.507Z,2.88
2023-06-17T12:49:53.295Z,3.55
2023-06-17T12:52:20.191Z,3.00
2023-06-17T12:54:47.140Z,3.58
2023-06-17T12:57:16.037Z,3.08
2023-06-17T12:59:42.692Z,2.85
2023-06-17T13:02:09.343Z,3.00
2023-06-17T13:04:36.069Z,2.85
2023-06-17T13:07:02.990Z,2.63
2023-06-17T13:09:29.536Z,2.80
2023-06-17T13:11:56.298Z,2.50
2023-06-17T13:14:23.938Z,3.40
2023-06-17T13:16:50.870Z,2.30
2023-06-17T13:19:18.402Z,2.92
2023-06-17T13:21:44.962Z,3.17
2023-06-17T13:24:14.631Z,2.83
2023-06-17T13:26:42.262Z,2.80
2023-06-17T13:29:09.371Z,2.55
2023-06-17T13:31:36.022Z,3.35
2023-06-17T13:34:02.710Z,2.90
2023-06-17T13:36:29.520Z,3.00
2023-06-17T13:38:56.341Z,2.33
2023-06-17T13:41:23.424Z,2.60
2023-06-17T13:43:50.455Z,2.67
2023-06-17T13:46:17.168Z,3.20
2023-06-17T13:48:44.021Z,2.60
2023-06-17T13:51:10.646Z,2.88
2023-06-17T13:53:38.077Z,2.47
2023-06-17T13:56:05.010Z,2.85
2023-06-17T13:58:31.775Z,2.88
2023-06-17T14:00:59.052Z,2.65
2023-06-17T14:03:25.779Z,2.90
2023-06-17T14:05:52.666Z,3.05
2023-06-17T14:08:21.464Z,2.72
2023-06-17T14:10:49.595Z,3.13
2023-06-17T14:13:16.741Z,2.88
2023-06-17T14:15:44.466Z,2.80
2023-06-17T14:18:12.330Z,2.63
2023-06-17T14:20:38.933Z,2.92
2023-06-17T14:23:05.980Z,3.13
2023-06-17T14:25:32.936Z,3.05
2023-06-17T14:28:00.851Z,2.90
2023-06-17T14:30:27.435Z,3.22
2023-06-17T14:32:54.027Z,2.85
2023-06-17T14:35:20.788Z,2.58
2023-06-17T14:37:49.418Z,2.80
2023-06-17T14:40:17.040Z,3.00
2023-06-17T14:42:45.643Z,3.20
2023-06-17T14:45:14.230Z,2.83
2023-06-17T14:47:41.489Z,3.22
2023-06-17T14:50:09.939Z,2.55
2023-06-17T14:52:36.598Z,3.25
2023-06-17T14:55:04.238Z,2.80
2023-06-17T14:57:33.304Z,2.50
2023-06-17T15:00:00.498Z,2.50
2023-06-17T15:02:30.926Z,2.60
2023-06-17T15:04:57.580Z,2.92
2023-06-17T15:07:25.304Z,3.00
2023-06-17T15:09:51.895Z,3.10
2023-06-17T15:12:18.408Z,2.90
2023-06-17T15:14:44.961Z,2.33
2023-06-17T15:17:11.566Z,2.03
2023-06-17T15:19:38.206Z,2.55
2023-06-17T15:22:05.030Z,3.40
2023-06-17T15:24:31.715Z,3.63
2023-06-17T15:26:58.406Z,2.97
2023-06-17T15:29:25.093Z,2.92
2023-06-17T15:31:51.655Z,2.85
2023-06-17T15:34:18.811Z,2.65
2023-06-17T15:36:45.413Z,2.47
2023-06-17T15:39:21.824Z,3.03
2023-06-17T15:41:50.411Z,2.38
2023-06-17T15:44:20.335Z,2.30
2023-06-17T15:46:47.290Z,3.00
2023-06-17T15:49:14.101Z,2.67
2023-06-17T15:51:40.657Z,2.97
2023-06-17T15:54:07.319Z,2.78
2023-06-17T15:56:36.406Z,2.53
2023-06-17T15:59:03.947Z,2.58
2023-06-17T16:01:30.803Z,2.60
2023-06-17T16:03:58.098Z,3.10
2023-06-17T16:06:24.757Z,2.90
2023-06-17T16:08:52.334Z,2.60
2023-06-17T16:11:19.638Z,2.38
2023-06-17T16:13:46.355Z,2.75
2023-06-17T16:16:12.992Z,2.83
2023-06-17T16:18:39.745Z,2.80
2023-06-17T16:21:06.286Z,2.95
2023-06-17T16:23:32.844Z,3.00
2023-06-17T16:26:00.094Z,3.53
2023-06-17T16:28:26.876Z,2.55
2023-06-17T16:30:53.455Z,2.70
2023-06-17T16:33:19.977Z,2.78
2023-06-17T16:35:46.543Z,3.00
2023-06-17T16:38:13.067Z,2.83
2023-06-17T16:40:39.607Z,3.10
2023-06-17T16:43:06.156Z,2.83
2023-06-17T16:45:32.755Z,2.75
2023-06-17T16:48:02.399Z,3.22
2023-06-17T16:52:55.736Z,3.28
2023-06-17T16:55:22.291Z,2.55
2023-06-17T16:57:48.794Z,2.95
2023-06-17T17:00:15.434Z,2.67
2023-06-17T17:02:42.051Z,3.08
2023-06-17T17:05:08.814Z,3.75
2023-06-17T17:07:35.535Z,2.88
2023-06-17T17:10:02.622Z,3.00
2023-06-17T17:12:29.242Z,3.10
2023-06-17T17:14:57.748Z,2.78
2023-06-17T17:17:24.324Z,2.88
2023-06-17T17:19:51.331Z,3.38
2023-06-17T17:22:17.890Z,3.15
2023-06-17T17:24:44.698Z,3.17
2023-06-17T17:27:11.749Z,3.05
2023-06-17T17:29:38.368Z,3.22
2023-06-17T17:32:05.652Z,2.97
2023-06-17T17:34:32.433Z,2.78
2023-06-17T17:36:59.229Z,2.58
2023-06-17T17:39:25.861Z,3.50
2023-06-17T17:41:52.430Z,3.20
2023-06-17T17:44:19.021Z,2.95
2023-06-17T17:46:45.624Z,3.20
2023-06-17T17:49:12.237Z,3.20
2023-06-17T17:51:38.881Z,3.35
2023-06-17T17:54:05.456Z,3.15
2023-06-17T17:56:32.289Z,4.10
2023-06-17T17:58:59.150Z,3.22
2023-06-17T18:01:26.322Z,2.85
2023-06-17T18:03:53.104Z,3.05
2023-06-17T18:06:19.811Z,3.05
2023-06-17T18:08:46.510Z,2.85
2023-06-17T18:11:14.170Z,3.30
2023-06-17T18:13:40.721Z,3.78
2023-06-17T18:16:07.587Z,3.25
2023-06-17T18:18:34.247Z,3.40
2023-06-17T18:21:00.918Z,3.78
2023-06-17T18:23:28.264Z,3.30
2023-06-17T18:25:54.966Z,3.50
2023-06-17T18:28:21.486Z,3.25
2023-06-17T18:30:48.051Z,3.08
2023-06-17T18:33:14.623Z,3.42
2023-06-17T18:35:41.171Z,2.92
2023-06-17T18:38:09.497Z,3.60
2023-06-17T18:40:36.352Z,3.38
2023-06-17T18:43:02.904Z,4.55
2023-06-17T18:45:29.526Z,3.72
2023-06-17T18:47:56.300Z,4.10
2023-06-17T18:50:23.623Z,4.00
2023-06-17T18:52:52.169Z,4.05
2023-06-17T18:55:18.927Z,4.28
2023-06-17T18:57:45.699Z,3.40
2023-06-17T19:00:12.679Z,3.13
2023-06-17T19:02:39.364Z,3.72
2023-06-17T19:05:07.036Z,3.53
2023-06-17T19:07:33.944Z,4.22
2023-06-17T19:10:01.817Z,3.50
2023-06-17T19:12:31.200Z,4.00
2023-06-17T19:14:58.619Z,3.45
2023-06-17T19:17:28.600Z,3.42
2023-06-17T19:19:58.768Z,3.67
2023-06-17T19:22:28.411Z,3.20
2023-06-17T19:24:56.514Z,3.70
2023-06-17T19:27:24.928Z,4.70
2023-06-17T19:29:51.524Z,5.60
2023-06-17T19:32:19.176Z,5.07
2023-06-17T19:34:48.315Z,4.50
2023-06-17T19:37:15.345Z,4.03
2023-06-17T19:39:41.886Z,4.65
2023-06-17T19:42:08.500Z,4.50
2023-06-17T19:44:37.015Z,4.13
2023-06-17T19:47:05.805Z,4.17
2023-06-17T19:49:32.440Z,4.15
2023-06-17T19:51:59.538Z,4.22
2023-06-17T19:54:28.593Z,4.30
2023-06-17T19:56:55.629Z,4.60
2023-06-17T19:59:22.130Z,4.47
2023-06-17T20:01:50.924Z,4.80
2023-06-17T20:04:17.888Z,4.65
2023-06-17T20:06:44.433Z,4.13
2023-06-17T20:09:11.146Z,4.88
2023-06-17T20:11:38.788Z,3.85
2023-06-17T20:14:05.429Z,4.70
2023-06-17T20:16:32.083Z,4.75
2023-06-17T20:18:58.713Z,4.32
2023-06-17T20:21:25.363Z,4.88
2023-06-17T20:23:51.951Z,4.25
2023-06-17T20:26:18.523Z,4.55
2023-06-17T20:28:45.063Z,4.72
2023-06-17T20:31:14.202Z,5.18
2023-06-17T20:33:40.734Z,4.63
2023-06-17T20:36:07.404Z,4.45
2023-06-17T20:38:34.022Z,5.03
2023-06-17T20:41:00.927Z,4.90
2023-06-17T20:43:27.470Z,12.45
2023-06-17T20:45:55.125Z,10.98
2023-06-17T20:48:21.666Z,7.70
2023-06-17T20:50:51.086Z,7.80
2023-06-17T20:53:17.649Z,6.05
2023-06-17T20:55:45.008Z,6.63
2023-06-17T20:58:11.660Z,7.93
2023-06-17T21:00:38.325Z,7.47
2023-06-17T21:03:05.292Z,6.25
2023-06-17T21:05:32.298Z,5.45
2023-06-17T21:07:58.895Z,6.07
2023-06-17T21:10:25.591Z,6.47
2023-06-17T21:12:52.400Z,6.03
2023-06-17T21:15:20.173Z,5.90
2023-06-17T21:17:46.761Z,5.38
2023-06-17T21:20:13.393Z,5.20
2023-06-17T21:22:40.096Z,5.80
2023-06-17T21:25:07.639Z,5.18
2023-06-17T21:27:34.152Z,5.72
2023-06-17T21:30:01.344Z,7.60
2023-06-17T21:32:29.064Z,7.30
2023-06-17T21:34:55.626Z,5.95
2023-06-17T21:37:23.201Z,5.70
2023-06-17T21:39:50.797Z,5.40
2023-06-17T21:42:17.590Z,5.28
2023-06-17T21:44:44.610Z,5.30
2023-06-17T21:47:11.176Z,5.80
2023-06-17T21:49:37.786Z,5.70
2023-06-17T21:52:05.009Z,6.05
2023-06-17T21:54:33.103Z,6.45
2023-06-17T21:56:59.879Z,6.28
2023-06-17T21:59:26.472Z,5.55
2023-06-17T22:01:53.125Z,5.93
2023-06-17T22:04:19.695Z,4.72
2023-06-17T22:06:46.336Z,5.20
2023-06-17T22:09:12.965Z,6.07
2023-06-17T22:11:39.484Z,6.13
2023-06-17T22:14:07.230Z,6.78
2023-06-17T22:16:33.856Z,5.90
2023-06-17T22:19:00.417Z,5.60
2023-06-17T22:21:26.929Z,5.97
2023-06-17T22:23:53.472Z,6.22
2023-06-17T22:26:20.286Z,6.30
2023-06-17T22:28:47.997Z,6.07
2023-06-17T22:31:15.833Z,5.72
2023-06-17T22:33:42.381Z,5.72
2023-06-17T22:36:09.151Z,5.65
2023-06-17T22:38:36.791Z,5.35
2023-06-17T22:41:03.363Z,6.82
2023-06-17T22:43:30.198Z,5.68
2023-06-17T22:45:56.702Z,5.35
2023-06-17T22:48:23.243Z,6.30
2023-06-17T22:50:49.747Z,6.10
2023-06-17T22:53:16.393Z,6.45
2023-06-17T22:55:43.961Z,5.88
2023-06-17T22:58:10.657Z,6.60
2023-06-17T23:00:37.304Z,6.22
2023-06-17T23:03:04.004Z,5.85
2023-06-17T23:05:30.968Z,5.65
2023-06-17T23:07:57.539Z,6.93
2023-06-17T23:10:24.418Z,5.85
2023-06-17T23:12:51.292Z,6.22
2023-06-17T23:15:17.890Z,6.18
2023-06-17T23:17:44.492Z,7.03
2023-06-17T23:20:11.467Z,5.65
2023-06-17T23:22:38.259Z,6.28
2023-06-17T23:25:07.843Z,6.15
2023-06-17T23:30:01.980Z,6.13
2023-06-17T23:32:28.822Z,6.78
2023-06-17T23:34:55.909Z,6.55
2023-06-17T23:37:22.880Z,6.57
2023-06-17T23:39:49.434Z,5.88
2023-06-17T23:42:15.996Z,6.55
2023-06-17T23:44:43.669Z,6.40
2023-06-17T23:47:16.106Z,6.22
2023-06-17T23:49:42.752Z,6.43
2023-06-17T23:52:10.951Z,6.38
2023-06-17T23:54:38.165Z,6.95
2023-06-17T23:57:05.222Z,7.05
2023-06-17T23:59:32.840Z,6.15
